ヘルシンキ/ヴァンター の空港の天気 - METARとTAF

ヘルシンキ・ヴァンター国際空港 ( EFHK / HEL ) - フィンランド ヴァンター
飛行場実況気象(Metar)
観測時間10/19 21:20 EEST (10/19 18:20 UTC)
風向・風速西 3m/s
視程10km以上
天気現象
なし
気温6℃
湿度76%
気圧1019hPa
METAREFHK 191820Z 27006KT CAVOK 06/02 Q1019 NOSIG
過去の天気等 Google飛行場航空写真 Wunderground天気予報

過去48時間のMETAR

飛行場予報(TAF)
発表時間: 10/19 20:37 EEST (10/19 17:37 UTC)
予報対象時間: 19日21時 EEST ~ 20日21時 EEST
風向・風速西 4m/s
視程10km以上
なし
20日1時 EEST から 確率 40% で
視程2500m
天気現象もや
TAF EFHK 191737Z 1918/2018 28008KT CAVOK
PROB40 1922/2007 2500 BR